Terminal Aerodrome Forecast
Issued by NWS

Home | Current Version | Previous Version | Text Only | Print | Product List | Glossary On
Versions: 1 2 3 4 5 6 7 8 9 10 11 12 13 14 15 16 17 18 19 20 21
000
FTUS41 KCAR 302319 AAA
TAFFVE
TAF AMD
KFVE 302319Z 3023/3118 20005KT P6SM BKN100
     FM310900 20003KT P6SM BKN030
      TEMPO 3111/3115 OVC015
     FM311500 26006KT P6SM SCT015 BKN050=

USA.gov is the U.S. government's official web portal to all federal, state and local government web resources and services.